| time (UTC) | temp F | wind direction | speed knots | gust knots | rain 1hr in | rain 24hr in | rain mn in | humidity % | barometer mb |
| 20260906210016 | 95 | 190 | 0.9 | 8.7 | 0.00 | 0.00 | 0.00 | 32 | 1011.8 |
| 20260906204512 | 95 | 190 | 4.3 | 13.9 | 0.00 | 0.00 | 0.00 | 32 | 1012.0 |
| 20260906203011 | 97 | 190 | 4.3 | 9.6 | 0.00 | 0.00 | 0.00 | 31 | 1012.2 |
| 20260906201527 | 98 | 190 | 8.7 | 13.9 | 0.00 | 0.00 | 0.00 | 31 | 1012.1 |
| 20260906200005 | 95 | 190 | 3.5 | 10.4 | 0.00 | 0.00 | 0.00 | 34 | 1012.0 |
| 20260906194502 | 95 | 190 | 2.6 | 10.4 | 0.00 | 0.00 | 0.00 | 34 | 1012.4 |
| 20260906193002 | 95 | 190 | 5.2 | 12.2 | 0.00 | 0.00 | 0.00 | 33 | 1012.8 |
| 20260906191609 | 96 | 190 | 4.3 | 13.0 | 0.00 | 0.00 | 0.00 | 32 | 1013.0 |
| 20260906190058 | 95 | 190 | 3.5 | 10.4 | 0.00 | 0.00 | 0.00 | 34 | 1013.0 |
| 20260906184556 | 93 | 190 | 3.5 | 10.4 | 0.00 | 0.00 | 0.00 | 35 | 1013.3 |
| 20260906183054 | 93 | 190 | 2.6 | 11.3 | 0.00 | 0.00 | 0.00 | 36 | 1013.6 |
| 20260906181552 | 93 | 190 | 6.1 | 9.6 | 0.00 | 0.00 | 0.00 | 37 | 1013.9 |
| 20260906180107 | 92 | 190 | 5.2 | 13.0 | 0.00 | 0.00 | 0.00 | 38 | 1014.2 |
| 20260906174558 | 92 | 190 | 3.5 | 12.2 | 0.00 | 0.00 | 0.00 | 38 | 1014.4 |
| 20260906173056 | 92 | 190 | 3.5 | 11.3 | 0.00 | 0.00 | 0.00 | 38 | 1014.4 |
| 20260906171545 | 91 | 190 | 5.2 | 9.6 | 0.00 | 0.00 | 0.00 | 41 | 1014.6 |
| 20260906170047 | 91 | 190 | 4.3 | 9.6 | 0.00 | 0.00 | 0.00 | 41 | 1014.7 |
| 20260906164541 | 90 | 190 | 5.2 | 10.4 | 0.00 | 0.00 | 0.00 | 43 | 1014.8 |
| 20260906163038 | 88 | 190 | 5.2 | 10.4 | 0.00 | 0.00 | 0.00 | 46 | 1014.9 |
| 20260906161535 | 87 | 190 | 5.2 | 10.4 | 0.00 | 0.00 | 0.00 | 47 | 1014.9 |
| 20260906160033 | 86 | 190 | 4.3 | 7.8 | 0.00 | 0.00 | 0.00 | 48 | 1014.8 |
| 20260906154532 | 85 | 190 | 4.3 | 8.7 | 0.00 | 0.00 | 0.00 | 49 | 1014.8 |
| 20260906153034 | 85 | 190 | 4.3 | 7.8 | 0.00 | 0.00 | 0.00 | 49 | 1014.7 |
| 20260906151524 | 84 | 190 | 2.6 | 8.7 | 0.00 | 0.00 | 0.00 | 50 | 1014.5 |
| 20260906150023 | 83 | 190 | 4.3 | 7.0 | 0.00 | 0.00 | 0.00 | 51 | 1014.4 |
| 20260906144520 | 82 | 190 | 4.3 | 9.6 | 0.00 | 0.00 | 0.00 | 52 | 1014.3 |
| 20260906143021 | 81 | 190 | 5.2 | 7.8 | 0.00 | 0.00 | 0.00 | 53 | 1014.4 |
| 20260906141518 | 81 | 190 | 3.5 | 8.7 | 0.00 | 0.00 | 0.00 | 54 | 1014.3 |
| 20260906140020 | 80 | 190 | 5.2 | 9.6 | 0.00 | 0.00 | 0.00 | 55 | 1014.2 |
| 20260906134515 | 79 | 190 | 5.2 | 8.7 | 0.00 | 0.00 | 0.00 | 56 | 1014.1 |
| 20260906133023 | 78 | 190 | 4.3 | 7.0 | 0.00 | 0.00 | 0.00 | 57 | 1014.0 |
| 20260906131518 | 78 | 190 | 3.5 | 6.1 | 0.00 | 0.00 | 0.00 | 57 | 1013.9 |
| 20260906130010 | 77 | 190 | 2.6 | 4.3 | 0.00 | 0.00 | 0.00 | 57 | 1013.7 |
| 20260906124509 | 77 | 190 | 2.6 | 5.2 | 0.00 | 0.00 | 0.00 | 56 | 1013.5 |
| 20260906123016 | 77 | 190 | 1.7 | 4.3 | 0.00 | 0.00 | 0.00 | 55 | 1013.3 |
| 20260906121508 | 77 | 190 | 2.6 | 6.1 | 0.00 | 0.00 | 0.00 | 55 | 1013.3 |
| 20260906120006 | 77 | 190 | 1.7 | 4.3 | 0.00 | 0.00 | 0.00 | 55 | 1013.2 |
| 20260906114505 | 77 | 190 | 2.6 | 5.2 | 0.00 | 0.00 | 0.00 | 55 | 1013.1 |
| 20260906113005 | 77 | 190 | 2.6 | 6.1 | 0.00 | 0.00 | 0.00 | 56 | 1013.1 |
| 20260906111505 | 77 | 190 | 0.9 | 3.5 | 0.00 | 0.00 | 0.00 | 57 | 1013.3 |
| 20260906110003 | 77 | 190 | 0.0 | 0.0 | 0.00 | 0.00 | 0.00 | 57 | 1013.4 |
| 20260906104600 | 77 | 190 | 0.0 | 0.0 | 0.00 | 0.00 | 0.00 | 56 | 1013.5 |
| 20260906103110 | 78 | 190 | 0.0 | 0.0 | 0.00 | 0.00 | 0.00 | 56 | 1013.5 |
| 20260906101558 | 78 | 190 | 0.0 | 2.6 | 0.00 | 0.00 | 0.00 | 56 | 1013.6 |
| 20260906100100 | 79 | 190 | 0.0 | 0.0 | 0.00 | 0.00 | 0.00 | 56 | 1013.6 |
| 20260906094553 | 79 | 190 | 0.0 | 0.0 | 0.00 | 0.00 | 0.00 | 56 | 1013.7 |
| 20260906093057 | 80 | 190 | 0.0 | 2.6 | 0.00 | 0.00 | 0.00 | 56 | 1013.8 |
| 20260906091549 | 80 | 190 | 0.0 | 0.0 | 0.00 | 0.00 | 0.00 | 56 | 1013.7 |
| 20260906090100 | 80 | 190 | 0.0 | 0.0 | 0.00 | 0.00 | 0.00 | 55 | 1013.7 |
| 20260906084549 | 80 | 190 | 0.0 | 0.0 | 0.00 | 0.00 | 0.00 | 53 | 1013.7 |
| 20260906083047 | 80 | 190 | 0.0 | 1.7 | 0.00 | 0.00 | 0.00 | 55 | 1013.6 |
| 20260906081552 | 80 | 190 | 0.0 | 0.0 | 0.00 | 0.00 | 0.00 | 55 | 1013.6 |
| 20260906080043 | 81 | 190 | 0.0 | 0.0 | 0.00 | 0.00 | 0.00 | 52 | 1013.4 |
| 20260906074541 | 81 | 190 | 0.0 | 0.0 | 0.00 | 0.00 | 0.00 | 51 | 1013.2 |
| 20260906073055 | 82 | 190 | 0.0 | 2.6 | 0.00 | 0.00 | 0.00 | 50 | 1013.3 |
| 20260906071538 | 82 | 190 | 3.5 | 8.7 | 0.00 | 0.00 | 0.00 | 47 | 1013.3 |
| 20260906070039 | 82 | 190 | 4.3 | 9.6 | 0.00 | 0.00 | 0.00 | 47 | 1013.1 |
| 20260906064535 | 82 | 190 | 5.2 | 9.6 | 0.00 | 0.00 | 0.00 | 47 | 1013.1 |
| 20260906063044 | 82 | 190 | 5.2 | 11.3 | 0.00 | 0.00 | 0.00 | 47 | 1013.1 |
| 20260906061530 | 82 | 190 | 5.2 | 12.2 | 0.00 | 0.00 | 0.00 | 47 | 1012.9 |
| 20260906060026 | 83 | 190 | 6.1 | 15.6 | 0.00 | 0.00 | 0.00 | 46 | 1012.8 |
| 20260906054522 | 84 | 190 | 6.1 | 13.0 | 0.00 | 0.00 | 0.00 | 45 | 1012.6 |
| 20260906053019 | 84 | 190 | 7.8 | 13.9 | 0.00 | 0.00 | 0.00 | 44 | 1012.5 |
| 20260906051529 | 84 | 190 | 7.0 | 13.0 | 0.00 | 0.00 | 0.00 | 44 | 1012.5 |
| 20260906050013 | 84 | 190 | 7.8 | 16.5 | 0.00 | 0.00 | 0.00 | 44 | 1012.4 |
| 20260906044513 | 85 | 190 | 7.0 | 13.9 | 0.00 | 0.00 | 0.00 | 43 | 1012.4 |
| 20260906043012 | 85 | 190 | 7.0 | 13.9 | 0.00 | 0.00 | 0.00 | 43 | 1012.4 |
| 20260906041512 | 86 | 190 | 6.1 | 17.4 | 0.00 | 0.00 | 0.00 | 43 | 1012.4 |
| 20260906040025 | 86 | 190 | 7.0 | 13.9 | 0.00 | 0.00 | 0.00 | 43 | 1012.3 |
| 20260906034510 | 87 | 190 | 5.2 | 14.8 | 0.00 | 0.00 | 0.00 | 42 | 1012.3 |
| 20260906033010 | 87 | 190 | 5.2 | 10.4 | 0.00 | 0.00 | 0.00 | 42 | 1012.2 |
| 20260906031512 | 87 | 190 | 3.5 | 8.7 | 0.00 | 0.00 | 0.00 | 41 | 1012.0 |
| 20260906030007 | 88 | 190 | 6.1 | 13.0 | 0.00 | 0.00 | 0.00 | 40 | 1011.9 |
| 20260906024507 | 88 | 190 | 3.5 | 10.4 | 0.00 | 0.00 | 0.00 | 39 | 1011.8 |
| 20260906023006 | 89 | 190 | 4.3 | 10.4 | 0.00 | 0.00 | 0.00 | 38 | 1011.3 |
| 20260906021506 | 89 | 190 | 4.3 | 9.6 | 0.00 | 0.00 | 0.00 | 38 | 1011.0 |
| 20260906020009 | 90 | 190 | 4.3 | 11.3 | 0.00 | 0.00 | 0.00 | 37 | 1010.6 |
| 20260906014505 | 91 | 190 | 4.3 | 9.6 | 0.00 | 0.00 | 0.00 | 36 | 1010.4 |
| 20260906013004 | 91 | 190 | 3.5 | 8.7 | 0.00 | 0.00 | 0.00 | 35 | 1010.2 |
| 20260906011503 | 92 | 190 | 4.3 | 11.3 | 0.00 | 0.00 | 0.00 | 35 | 1010.1 |
| 20260906010002 | 93 | 190 | 4.3 | 11.3 | 0.00 | 0.00 | 0.00 | 34 | 1010.0 |
| 20260906004501 | 94 | 190 | 5.2 | 12.2 | 0.00 | 0.00 | 0.00 | 34 | 1010.1 |
| 20260906003100 | 95 | 190 | 6.1 | 14.8 | 0.00 | 0.00 | 0.00 | 33 | 1010.1 |
| 20260906001557 | 96 | 190 | 4.3 | 10.4 | 0.00 | 0.00 | 0.00 | 32 | 1010.1 |
| 20260906000107 | 98 | 190 | 7.0 | 12.2 | 0.00 | 0.00 | 0.00 | 31 | 1009.9 |
| 20260905234619 | 99 | 190 | 6.1 | 13.0 | 0.00 | 0.00 | 0.00 | 31 | 1009.3 |
| 20260905233056 | 99 | 190 | 4.3 | 12.2 | 0.00 | 0.00 | 0.00 | 31 | 1009.1 |
| 20260905231604 | 98 | 190 | 3.5 | 12.2 | 0.00 | 0.00 | 0.00 | 32 | 1009.0 |
| 20260905224555 | 99 | 190 | 2.6 | 7.0 | 0.00 | 0.00 | 0.00 | 34 | 1009.1 |
| 20260905223056 | 99 | 190 | 4.3 | 9.6 | 0.00 | 0.00 | 0.00 | 31 | 1009.1 |
| 20260905221556 | 99 | 190 | 2.6 | 8.7 | 0.00 | 0.00 | 0.00 | 29 | 1009.0 |
| 20260905214550 | 101 | 190 | 3.5 | 11.3 | 0.00 | 0.00 | 0.00 | 28 | 1009.1 |
| 20260905213047 | 101 | 190 | 4.3 | 10.4 | 0.00 | 0.00 | 0.00 | 28 | 1009.2 |
| 20260905211543 | 101 | 190 | 6.1 | 12.2 | 0.00 | 0.00 | 0.00 | 28 | 1009.5 |